createdAt,value
2019-04-06T00:04:20.086Z,14.43
2019-04-06T00:09:29.015Z,15.07
2019-04-06T00:14:38.009Z,14.65
2019-04-06T00:19:47.118Z,14.23
2019-04-06T00:24:56.064Z,14.23
2019-04-06T00:30:05.064Z,15.83
2019-04-06T00:35:14.010Z,16.10
2019-04-06T00:40:23.015Z,16.65
2019-04-06T00:45:31.985Z,17.45
2019-04-06T00:50:40.939Z,18.02
2019-04-06T00:55:55.389Z,18.84
2019-04-06T01:00:58.493Z,18.66
2019-04-06T01:06:07.432Z,19.15
2019-04-06T01:11:16.392Z,18.46
2019-04-06T01:16:25.362Z,18.02
2019-04-06T01:21:34.326Z,19.64
2019-04-06T01:26:43.331Z,20.58
2019-04-06T01:31:52.302Z,23.25
2019-04-06T01:37:01.356Z,23.07
2019-04-06T01:42:10.274Z,23.00
2019-04-06T01:47:19.205Z,22.91
2019-04-06T01:52:28.194Z,24.06
2019-04-06T01:57:37.123Z,25.01
2019-04-06T02:02:46.091Z,27.16
2019-04-06T02:07:55.043Z,28.87
2019-04-06T02:13:03.998Z,29.01
2019-04-06T02:18:12.927Z,29.42
2019-04-06T02:23:21.879Z,28.14
2019-04-06T02:28:30.801Z,29.69
2019-04-06T02:33:39.779Z,29.34
2019-04-06T02:38:48.721Z,30.59
2019-04-06T02:43:58.126Z,32.47
2019-04-06T02:49:07.041Z,31.51
2019-04-06T02:54:15.977Z,31.01
2019-04-06T02:59:24.882Z,31.35
2019-04-06T03:04:33.847Z,32.43
2019-04-06T03:09:42.862Z,33.85
2019-04-06T03:14:51.709Z,33.88
2019-04-06T03:20:00.602Z,34.58
2019-04-06T03:25:09.566Z,33.14
2019-04-06T03:30:18.509Z,32.99
2019-04-06T03:35:27.536Z,33.30
2019-04-06T03:40:36.483Z,34.45
2019-04-06T03:45:45.425Z,33.76
2019-04-06T03:50:54.356Z,34.05
2019-04-06T03:56:03.409Z,34.82
2019-04-06T04:01:12.206Z,35.70
2019-04-06T04:06:21.384Z,34.72
2019-04-06T04:11:30.064Z,36.00
2019-04-06T04:16:38.909Z,36.22
2019-04-06T04:21:47.774Z,37.69
2019-04-06T04:26:56.689Z,37.71
2019-04-06T04:32:05.549Z,36.99
2019-04-06T04:37:14.438Z,37.19
2019-04-06T04:42:23.299Z,39.64
2019-04-06T04:47:32.140Z,39.11
2019-04-06T04:52:41.031Z,39.71
2019-04-06T04:57:49.932Z,40.66
2019-04-06T05:02:58.796Z,41.14
2019-04-06T05:08:07.714Z,39.82
2019-04-06T05:13:16.575Z,40.15
2019-04-06T05:18:25.484Z,38.67
2019-04-06T05:23:34.356Z,38.95
2019-04-06T05:28:43.425Z,37.16
2019-04-06T05:33:52.163Z,36.05
2019-04-06T05:39:01.107Z,32.36
2019-04-06T05:44:09.983Z,35.34
2019-04-06T05:49:18.860Z,36.19
2019-04-06T05:54:27.897Z,38.01
2019-04-06T05:59:40.329Z,36.10
2019-04-06T06:04:45.186Z,34.13
2019-04-06T06:09:53.954Z,36.81
2019-04-06T06:15:02.888Z,37.39
2019-04-06T06:20:11.748Z,37.06
2019-04-06T06:25:20.633Z,35.94
2019-04-06T06:30:29.491Z,38.32
2019-04-06T06:35:38.474Z,38.65
2019-04-06T06:40:47.263Z,35.76
2019-04-06T06:45:56.123Z,35.40
2019-04-06T06:51:05.055Z,36.04
2019-04-06T06:56:13.919Z,37.81
2019-04-06T07:01:22.806Z,37.31
2019-04-06T07:06:31.636Z,37.27
2019-04-06T07:11:40.532Z,39.09
2019-04-06T07:16:49.396Z,37.62
2019-04-06T07:21:58.299Z,39.20
2019-04-06T07:27:07.171Z,36.96
2019-04-06T07:32:16.075Z,37.63
2019-04-06T07:37:24.923Z,37.81
2019-04-06T07:42:33.825Z,37.88
2019-04-06T07:47:42.749Z,36.30
2019-04-06T07:52:51.777Z,35.48
2019-04-06T07:58:00.499Z,38.81
2019-04-06T08:03:09.415Z,38.22
2019-04-06T08:08:18.264Z,38.30
2019-04-06T08:13:27.332Z,37.77
2019-04-06T08:18:36.024Z,38.70
2019-04-06T08:23:45.122Z,39.07
2019-04-06T08:29:00.231Z,38.96
2019-04-06T08:34:02.223Z,38.98
2019-04-06T08:39:11.069Z,38.21
2019-04-06T08:44:19.971Z,38.67
2019-04-06T08:49:28.809Z,38.57
2019-04-06T08:54:37.696Z,39.30
2019-04-06T08:59:46.557Z,40.20
2019-04-06T09:04:55.416Z,39.08
2019-04-06T09:10:04.280Z,40.30
2019-04-06T09:15:13.167Z,39.71
2019-04-06T09:20:22.037Z,41.71
2019-04-06T09:25:30.943Z,40.96
2019-04-06T09:30:39.843Z,41.99
2019-04-06T09:35:48.994Z,42.99
2019-04-06T09:40:57.599Z,41.71
2019-04-06T09:46:06.469Z,41.17
2019-04-06T09:51:15.335Z,42.10
2019-04-06T09:56:24.228Z,41.81
2019-04-06T10:01:38.964Z,40.33
2019-04-06T10:06:41.493Z,42.03
2019-04-06T10:11:50.347Z,41.08
2019-04-06T10:16:59.247Z,42.08
2019-04-06T10:22:08.101Z,43.36
2019-04-06T10:27:16.958Z,42.23
2019-04-06T10:32:25.979Z,44.00
2019-04-06T10:37:34.854Z,43.64
2019-04-06T10:42:43.572Z,43.65
2019-04-06T10:47:52.460Z,44.66
2019-04-06T10:53:01.320Z,45.34
2019-04-06T10:58:10.175Z,45.23
2019-04-06T11:03:19.102Z,45.16
2019-04-06T11:08:27.963Z,47.18
2019-04-06T11:13:36.755Z,46.39
2019-04-06T11:18:45.652Z,44.47
2019-04-06T11:23:54.492Z,43.77
2019-04-06T11:29:03.455Z,43.13
2019-04-06T11:34:12.494Z,44.66
2019-04-06T11:39:21.179Z,43.65
2019-04-06T11:44:30.043Z,40.59
2019-04-06T11:49:38.908Z,39.75
2019-04-06T11:54:47.858Z,41.78
2019-04-06T11:59:56.708Z,42.06
2019-04-06T12:05:05.579Z,42.34
2019-04-06T12:10:14.812Z,38.93
2019-04-06T12:15:23.295Z,44.62
2019-04-06T12:20:32.165Z,45.30
2019-04-06T12:25:41.298Z,44.83
2019-04-06T12:30:49.907Z,49.50
2019-04-06T12:35:58.866Z,47.98
2019-04-06T12:41:07.612Z,47.38
2019-04-06T12:46:16.894Z,45.30
2019-04-06T12:51:25.400Z,44.20
2019-04-06T12:56:34.274Z,43.99
2019-04-06T13:01:43.124Z,46.86
2019-04-06T13:06:51.973Z,46.42
2019-04-06T13:12:00.827Z,49.01
2019-04-06T13:17:09.697Z,46.81
2019-04-06T13:22:18.585Z,46.56
2019-04-06T13:27:27.463Z,50.13
2019-04-06T13:32:36.571Z,47.08
2019-04-06T13:37:45.182Z,49.62
2019-04-06T13:42:54.071Z,53.38
2019-04-06T13:48:02.922Z,54.43
2019-04-06T13:53:11.803Z,56.95
2019-04-06T13:58:20.917Z,59.85
2019-04-06T14:03:29.577Z,59.97
2019-04-06T14:08:38.605Z,60.99
2019-04-06T14:13:47.679Z,59.73
2019-04-06T14:18:56.344Z,59.74
2019-04-06T14:24:05.343Z,57.60
2019-04-06T14:29:14.037Z,56.06
2019-04-06T14:34:22.915Z,54.63
2019-04-06T14:39:31.970Z,53.91
2019-04-06T14:44:40.777Z,56.23
2019-04-06T14:49:49.980Z,55.11
2019-04-06T14:54:58.141Z,56.47
2019-04-06T15:00:06.832Z,54.11
2019-04-06T15:05:15.784Z,54.65
2019-04-06T15:10:24.564Z,54.94
2019-04-06T15:15:33.429Z,55.07
2019-04-06T15:20:42.725Z,54.98
2019-04-06T15:25:50.704Z,55.37
2019-04-06T15:30:59.576Z,53.16
2019-04-06T15:36:08.454Z,51.69
2019-04-06T15:41:17.331Z,52.72
2019-04-06T15:46:26.164Z,53.34
2019-04-06T15:51:35.020Z,54.83
2019-04-06T15:56:43.883Z,51.43
2019-04-06T16:02:00.095Z,55.39
2019-04-06T16:07:01.140Z,55.04
2019-04-06T16:12:10.011Z,53.52
2019-04-06T16:17:19.040Z,54.11
2019-04-06T16:22:27.736Z,52.74
2019-04-06T16:27:36.618Z,56.50
2019-04-06T16:32:45.479Z,55.93
2019-04-06T16:37:54.332Z,57.86
2019-04-06T16:43:03.219Z,56.95
2019-04-06T16:48:12.103Z,57.65
2019-04-06T16:53:20.983Z,57.40
2019-04-06T16:58:29.824Z,55.60
2019-04-06T17:03:38.731Z,56.47
2019-04-06T17:08:47.807Z,54.85
2019-04-06T17:13:56.893Z,54.12
2019-04-06T17:19:05.939Z,53.37
2019-04-06T17:24:14.044Z,54.18
2019-04-06T17:29:23.296Z,55.08
2019-04-06T17:34:31.424Z,56.97
2019-04-06T17:39:40.184Z,52.81
2019-04-06T17:44:49.036Z,52.83
2019-04-06T17:49:57.909Z,53.12
2019-04-06T17:55:06.793Z,53.32
2019-04-06T18:00:15.659Z,54.75
2019-04-06T18:05:24.601Z,53.76
2019-04-06T18:10:33.410Z,56.64
2019-04-06T18:15:42.732Z,56.97
2019-04-06T18:20:50.700Z,57.26
2019-04-06T18:25:59.609Z,58.95
2019-04-06T18:31:08.531Z,56.62
2019-04-06T18:36:17.585Z,58.55
2019-04-06T18:41:26.315Z,58.35
2019-04-06T18:46:35.179Z,57.85
2019-04-06T18:51:44.117Z,57.88
2019-04-06T18:56:52.896Z,58.75
2019-04-06T19:02:01.868Z,59.63
2019-04-06T19:07:10.904Z,54.57
2019-04-06T19:12:19.959Z,53.17
2019-04-06T19:17:27.995Z,50.93
2019-04-06T19:22:36.840Z,49.79
2019-04-06T19:27:45.723Z,50.24
2019-04-06T19:32:54.602Z,49.34
2019-04-06T19:38:03.133Z,48.65
2019-04-06T19:43:11.897Z,51.31
2019-04-06T19:48:20.748Z,49.32
2019-04-06T19:53:29.966Z,49.24
2019-04-06T19:58:38.078Z,48.82
2019-04-06T20:03:46.883Z,51.97
2019-04-06T20:08:56.167Z,65.53
2019-04-06T20:14:04.170Z,71.24
2019-04-06T20:19:13.084Z,71.46
2019-04-06T20:24:21.937Z,72.64
2019-04-06T20:29:30.809Z,72.08
2019-04-06T20:34:39.652Z,73.34
2019-04-06T20:39:48.993Z,73.96
2019-04-06T20:44:56.944Z,73.03
2019-04-06T20:50:05.874Z,72.87
2019-04-06T20:55:14.739Z,75.96
2019-04-06T21:00:23.601Z,77.73
2019-04-06T21:05:32.986Z,77.45
2019-04-06T21:10:40.933Z,77.51
2019-04-06T21:15:49.901Z,76.90
2019-04-06T21:20:58.686Z,79.13
2019-04-06T21:26:07.555Z,75.33
2019-04-06T21:31:16.436Z,78.55
2019-04-06T21:36:25.494Z,78.80
2019-04-06T21:41:34.224Z,79.57
2019-04-06T21:46:43.452Z,80.32
2019-04-06T21:51:51.996Z,76.96
2019-04-06T21:57:00.907Z,78.78
2019-04-06T22:02:09.784Z,79.00
2019-04-06T22:07:18.857Z,77.67
2019-04-06T22:12:27.513Z,77.30
2019-04-06T22:17:36.441Z,68.78
2019-04-06T22:22:45.948Z,76.29
2019-04-06T22:27:54.047Z,76.49
2019-04-06T22:33:02.907Z,71.38
2019-04-06T22:38:12.112Z,69.96
2019-04-06T22:43:20.154Z,65.91
2019-04-06T22:48:28.946Z,67.26
2019-04-06T22:53:37.803Z,66.30
2019-04-06T22:58:46.692Z,62.06
2019-04-06T23:03:56.117Z,64.40
2019-04-06T23:09:04.386Z,62.91
2019-04-06T23:14:12.518Z,64.97
2019-04-06T23:19:21.419Z,60.38
2019-04-06T23:24:30.706Z,64.28
2019-04-06T23:29:38.492Z,64.39
2019-04-06T23:34:57.800Z,66.36
2019-04-06T23:39:56.135Z,71.08
2019-04-06T23:45:04.742Z,69.56
2019-04-06T23:50:12.532Z,73.02
2019-04-06T23:55:21.401Z,73.92
